createdAt,value
2018-05-04T00:02:03.120Z,10.3
2018-05-04T00:07:03.187Z,10.2
2018-05-04T00:12:03.272Z,10.2
2018-05-04T00:17:03.020Z,10.2
2018-05-04T00:22:03.161Z,10.1
2018-05-04T00:27:03.080Z,10.1
2018-05-04T00:32:03.270Z,10.1
2018-05-04T00:37:03.178Z,10.1
2018-05-04T00:42:03.090Z,9.9
2018-05-04T00:47:03.085Z,9.9
2018-05-04T00:52:03.004Z,9.9
2018-05-04T00:57:03.212Z,9.9
2018-05-04T01:02:03.087Z,9.8
2018-05-04T01:07:02.988Z,9.7
2018-05-04T01:12:03.034Z,9.7
2018-05-04T01:17:02.965Z,9.7
2018-05-04T01:22:03.133Z,9.7
2018-05-04T01:27:03.063Z,9.6
2018-05-04T01:32:03.177Z,9.6
2018-05-04T01:37:02.945Z,9.5
2018-05-04T01:42:02.948Z,9.5
2018-05-04T01:47:02.777Z,9.5
2018-05-04T01:52:03.089Z,9.5
2018-05-04T01:57:02.779Z,9.5
2018-05-04T02:02:03.056Z,9.5
2018-05-04T02:07:02.846Z,9.5
2018-05-04T02:12:03.018Z,9.5
2018-05-04T02:17:02.927Z,9.4
2018-05-04T02:22:03.197Z,9.4
2018-05-04T02:27:02.992Z,9.3
2018-05-04T02:32:02.798Z,9.3
2018-05-04T02:37:02.991Z,9.3
2018-05-04T02:42:02.800Z,9.3
2018-05-04T02:47:02.982Z,9.3
2018-05-04T02:52:02.910Z,9.3
2018-05-04T02:57:02.852Z,9.3
2018-05-04T03:02:03.005Z,9.3
2018-05-04T03:07:02.951Z,9.3
2018-05-04T03:12:02.697Z,9.2
2018-05-04T03:17:02.769Z,9.2
2018-05-04T03:22:02.834Z,9.2
2018-05-04T03:27:02.742Z,9.2
2018-05-04T03:32:02.793Z,9.2
2018-05-04T03:37:02.857Z,9.1
2018-05-04T03:42:02.780Z,9
2018-05-04T03:47:02.760Z,8.9
2018-05-04T03:52:02.691Z,8.8
2018-05-04T03:57:02.986Z,8.7
2018-05-04T04:02:02.987Z,8.6
2018-05-04T04:07:03.013Z,8.5
2018-05-04T04:12:02.580Z,8.5
2018-05-04T04:17:02.859Z,8.5
2018-05-04T04:22:02.881Z,8.4
2018-05-04T04:27:02.889Z,8.4
2018-05-04T04:32:02.719Z,8.5
2018-05-04T04:37:02.692Z,8.5
2018-05-04T04:42:02.823Z,8.5
2018-05-04T04:47:02.693Z,8.4
2018-05-04T04:52:02.850Z,8.5
2018-05-04T04:57:02.730Z,8.5
2018-05-04T05:02:02.716Z,8.5
2018-05-04T05:07:02.637Z,8.5
2018-05-04T05:12:02.585Z,8.6
2018-05-04T05:17:02.679Z,8.6
2018-05-04T05:22:02.731Z,8.7
2018-05-04T05:27:02.450Z,8.7
2018-05-04T05:32:02.686Z,8.7
2018-05-04T05:37:02.513Z,8.8
2018-05-04T05:42:02.857Z,8.8
2018-05-04T05:47:02.746Z,8.9
2018-05-04T05:52:02.769Z,8.9
2018-05-04T05:57:02.523Z,8.9
2018-05-04T06:02:02.596Z,9.1
2018-05-04T06:07:02.537Z,9.1
2018-05-04T06:12:02.567Z,9.2
2018-05-04T06:17:02.668Z,9.3
2018-05-04T06:22:02.500Z,9.5
2018-05-04T06:27:02.493Z,9.5
2018-05-04T06:32:02.339Z,9.6
2018-05-04T06:37:02.580Z,9.6
2018-05-04T06:42:02.436Z,9.8
2018-05-04T06:47:02.537Z,10
2018-05-04T06:52:02.698Z,10.1
2018-05-04T06:57:02.597Z,10.3
2018-05-04T07:02:02.590Z,10.3
2018-05-04T07:07:02.295Z,10.5
2018-05-04T07:12:02.402Z,10.5
2018-05-04T07:17:02.346Z,10.9
2018-05-04T07:22:02.539Z,11
2018-05-04T07:27:02.619Z,11.3
2018-05-04T07:32:02.623Z,11.6
2018-05-04T07:37:02.440Z,11.7
2018-05-04T07:42:02.494Z,11.7
2018-05-04T07:47:02.522Z,12
2018-05-04T07:52:02.376Z,12.1
2018-05-04T07:57:02.295Z,12.3
2018-05-04T08:02:02.328Z,12.5
2018-05-04T08:07:02.455Z,12.6
2018-05-04T08:12:02.229Z,12.8
2018-05-04T08:17:02.432Z,13
2018-05-04T08:22:02.240Z,13.1
2018-05-04T08:27:02.303Z,13.1
2018-05-04T08:32:02.389Z,13.3
2018-05-04T08:37:02.173Z,13.4
2018-05-04T08:42:02.276Z,13.6
2018-05-04T08:47:02.143Z,13.7
2018-05-04T08:52:02.425Z,13.8
2018-05-04T08:57:02.443Z,13.9
2018-05-04T09:02:02.149Z,14
2018-05-04T09:07:02.145Z,14
2018-05-04T09:12:02.407Z,14.2
2018-05-04T09:17:02.148Z,14.3
2018-05-04T09:22:02.098Z,14.5
2018-05-04T09:27:02.132Z,14.5
2018-05-04T09:32:02.314Z,14.5
2018-05-04T09:37:03.232Z,14.8
2018-05-04T09:42:02.451Z,15
2018-05-04T09:47:02.349Z,15
2018-05-04T09:52:02.145Z,15.2
2018-05-04T09:57:02.320Z,15.3
2018-05-04T10:02:02.431Z,15.4
2018-05-04T10:07:02.243Z,15.4
2018-05-04T10:12:02.181Z,15.5
2018-05-04T10:17:02.090Z,15.7
2018-05-04T10:22:02.102Z,15.9
2018-05-04T10:27:02.201Z,15.9
2018-05-04T10:32:02.068Z,16
2018-05-04T10:37:02.144Z,16.2
2018-05-04T10:42:02.198Z,16.3
2018-05-04T10:47:02.074Z,16.5
2018-05-04T10:52:02.200Z,16.5
2018-05-04T10:57:02.113Z,16.5
2018-05-04T11:02:02.093Z,16.6
2018-05-04T11:07:02.121Z,16.7
2018-05-04T11:12:02.389Z,16.8
2018-05-04T11:17:02.058Z,16.8
2018-05-04T11:22:02.023Z,17
2018-05-04T11:27:02.260Z,17
2018-05-04T11:32:02.145Z,17.1
2018-05-04T11:37:01.914Z,17.3
2018-05-04T11:42:02.244Z,17.4
2018-05-04T11:47:01.958Z,17.4
2018-05-04T11:52:02.165Z,17.5
2018-05-04T11:57:02.133Z,17.6
2018-05-04T12:02:02.036Z,17.8
2018-05-04T12:07:02.145Z,17.8
2018-05-04T12:12:02.137Z,17.9
2018-05-04T12:17:01.994Z,18
2018-05-04T12:22:01.860Z,18.2
2018-05-04T12:27:02.189Z,18.2
2018-05-04T12:32:02.143Z,18.2
2018-05-04T12:37:02.050Z,18.2
2018-05-04T12:42:01.853Z,18.3
2018-05-04T12:47:02.160Z,18.2
2018-05-04T12:52:01.987Z,18.2
2018-05-04T12:57:02.153Z,18.4
2018-05-04T13:02:01.749Z,18.3
2018-05-04T13:07:01.839Z,18.3
2018-05-04T13:12:02.100Z,18.3
2018-05-04T13:17:01.949Z,18.4
2018-05-04T13:22:02.143Z,18.5
2018-05-04T13:27:01.759Z,18.5
2018-05-04T13:32:01.799Z,18.6
2018-05-04T13:37:01.848Z,18.7
2018-05-04T13:42:01.965Z,18.7
2018-05-04T13:47:01.913Z,18.6
2018-05-04T13:52:02.048Z,18.6
2018-05-04T13:57:02.050Z,18.6
2018-05-04T14:02:01.860Z,18.6
2018-05-04T14:07:01.820Z,18.7
2018-05-04T14:12:01.727Z,18.7
2018-05-04T14:17:01.876Z,18.7
2018-05-04T14:22:01.967Z,18.6
2018-05-04T14:27:01.789Z,18.6
2018-05-04T14:32:01.685Z,18.7
2018-05-04T14:37:01.707Z,18.8
2018-05-04T14:42:01.964Z,18.7
2018-05-04T14:47:01.831Z,18.8
2018-05-04T14:52:01.906Z,18.8
2018-05-04T14:57:01.712Z,18.8
2018-05-04T15:02:01.656Z,18.7
2018-05-04T15:07:01.981Z,18.7
2018-05-04T15:12:01.703Z,18.7
2018-05-04T15:17:01.831Z,18.7
2018-05-04T15:22:01.711Z,18.6
2018-05-04T15:27:01.904Z,18.6
2018-05-04T15:32:01.957Z,18.6
2018-05-04T15:37:01.684Z,18.4
2018-05-04T15:42:01.697Z,18.3
2018-05-04T15:47:01.898Z,18.2
2018-05-04T15:52:01.685Z,18.1
2018-05-04T15:57:01.502Z,17.9
2018-05-04T16:02:01.562Z,17.7
2018-05-04T16:07:01.661Z,17.6
2018-05-04T16:12:01.650Z,17.5
2018-05-04T16:17:01.557Z,17.4
2018-05-04T16:22:01.853Z,17.4
2018-05-04T16:27:01.622Z,17.3
2018-05-04T16:32:01.813Z,17.2
2018-05-04T16:37:01.532Z,17.2
2018-05-04T16:42:01.542Z,17.2
2018-05-04T16:47:01.495Z,17.2
2018-05-04T16:52:01.703Z,17.2
2018-05-04T16:57:01.700Z,17.1
2018-05-04T17:02:01.442Z,17
2018-05-04T17:07:01.732Z,17
2018-05-04T17:12:01.788Z,17
2018-05-04T17:17:01.766Z,17
2018-05-04T17:22:01.544Z,16.9
2018-05-04T17:27:01.810Z,16.8
2018-05-04T17:32:01.506Z,16.8
2018-05-04T17:37:01.430Z,16.8
2018-05-04T17:42:01.754Z,16.7
2018-05-04T17:47:01.463Z,16.7
2018-05-04T17:52:01.528Z,16.6
2018-05-04T17:57:01.353Z,16.6
2018-05-04T18:02:01.775Z,16.5
2018-05-04T18:07:01.474Z,16.5
2018-05-04T18:12:01.436Z,16.4
2018-05-04T18:17:01.708Z,16.4
2018-05-04T18:22:01.586Z,16.3
2018-05-04T18:27:01.618Z,16.3
2018-05-04T18:32:01.301Z,16.2
2018-05-04T18:37:01.581Z,16.1
2018-05-04T18:42:01.445Z,16
2018-05-04T18:47:01.340Z,15.9
2018-05-04T18:52:01.442Z,15.9
2018-05-04T18:57:01.662Z,15.8
2018-05-04T19:02:01.366Z,15.7
2018-05-04T19:07:01.536Z,15.7
2018-05-04T19:12:01.549Z,15.6
2018-05-04T19:17:01.317Z,15.5
2018-05-04T19:22:01.481Z,15.5
2018-05-04T19:27:01.220Z,15.5
2018-05-04T19:32:01.343Z,15.3
2018-05-04T19:37:01.348Z,15.2
2018-05-04T19:42:01.270Z,15.2
2018-05-04T19:47:01.301Z,15.1
2018-05-04T19:52:01.269Z,15
2018-05-04T19:57:01.448Z,15
2018-05-04T20:02:01.180Z,14.9
2018-05-04T20:07:01.451Z,14.8
2018-05-04T20:12:01.500Z,14.7
2018-05-04T20:17:01.305Z,14.7
2018-05-04T20:22:01.246Z,14.6
2018-05-04T20:27:01.257Z,14.5
2018-05-04T20:32:01.231Z,14.4
2018-05-04T20:37:01.315Z,14.4
2018-05-04T20:42:01.276Z,14.4
2018-05-04T20:47:01.273Z,14.3
2018-05-04T20:52:01.288Z,14.2
2018-05-04T20:57:01.180Z,14.2
2018-05-04T21:02:01.075Z,14.1
2018-05-04T21:07:01.367Z,14
2018-05-04T21:12:01.067Z,14
2018-05-04T21:17:01.286Z,14
2018-05-04T21:22:01.241Z,13.9
2018-05-04T21:27:01.237Z,13.9
2018-05-04T21:32:01.286Z,13.8
2018-05-04T21:37:01.159Z,13.8
2018-05-04T21:42:01.040Z,13.7
2018-05-04T21:47:01.195Z,13.7
2018-05-04T21:52:01.283Z,13.7
2018-05-04T21:57:01.404Z,13.7
2018-05-04T22:02:01.004Z,13.6
2018-05-04T22:07:01.320Z,13.6
2018-05-04T22:12:01.241Z,13.5
2018-05-04T22:17:01.236Z,13.5
2018-05-04T22:22:01.059Z,13.5
2018-05-04T22:27:01.318Z,13.4
2018-05-04T22:32:00.951Z,13.4
2018-05-04T22:37:01.117Z,13.3
2018-05-04T22:42:00.947Z,13.3
2018-05-04T22:47:01.151Z,13.2
2018-05-04T22:52:01.058Z,13.2
2018-05-04T22:57:01.288Z,13.1
2018-05-04T23:02:00.876Z,13.1
2018-05-04T23:07:00.881Z,13.1
2018-05-04T23:12:01.060Z,12.9
2018-05-04T23:17:01.196Z,12.9
2018-05-04T23:22:01.195Z,12.8
2018-05-04T23:27:01.010Z,12.8
2018-05-04T23:32:00.905Z,12.7
2018-05-04T23:37:01.154Z,12.7
2018-05-04T23:42:00.964Z,12.6
2018-05-04T23:47:01.011Z,12.6
2018-05-04T23:52:01.122Z,12.6
2018-05-04T23:57:01.151Z,12.5
